sensor_id;sensor_type;location;lat;lon;timestamp;temperature;humidity
74822;DHT22;63353;48.702;8.884;2023-10-09T00:01:43;11.30;99.90
74822;DHT22;63353;48.702;8.884;2023-10-09T00:04:10;11.20;99.90
74822;DHT22;63353;48.702;8.884;2023-10-09T00:06:36;11.20;99.90
74822;DHT22;63353;48.702;8.884;2023-10-09T00:09:06;11.10;99.90
74822;DHT22;63353;48.702;8.884;2023-10-09T00:11:51;11.10;99.90
74822;DHT22;63353;48.702;8.884;2023-10-09T00:14:26;11.10;99.90
74822;DHT22;63353;48.702;8.884;2023-10-09T00:16:56;11.10;99.90
74822;DHT22;63353;48.702;8.884;2023-10-09T00:19:37;11.10;99.90
74822;DHT22;63353;48.702;8.884;2023-10-09T00:22:03;11.00;99.90
74822;DHT22;63353;48.702;8.884;2023-10-09T00:24:49;11.00;99.90
74822;DHT22;63353;48.702;8.884;2023-10-09T00:27:16;11.00;99.90
74822;DHT22;63353;48.702;8.884;2023-10-09T00:29:46;11.00;99.90
74822;DHT22;63353;48.702;8.884;2023-10-09T00:32:14;11.00;99.90
74822;DHT22;63353;48.702;8.884;2023-10-09T00:34:52;10.90;99.90
74822;DHT22;63353;48.702;8.884;2023-10-09T00:37:18;10.90;99.90
74822;DHT22;63353;48.702;8.884;2023-10-09T00:39:51;10.80;99.90
74822;DHT22;63353;48.702;8.884;2023-10-09T00:42:24;10.80;99.90
74822;DHT22;63353;48.702;8.884;2023-10-09T00:44:56;10.80;99.90
74822;DHT22;63353;48.702;8.884;2023-10-09T00:47:22;10.80;99.90
74822;DHT22;63353;48.702;8.884;2023-10-09T00:49:59;10.70;99.90
74822;DHT22;63353;48.702;8.884;2023-10-09T00:52:31;10.70;99.90
74822;DHT22;63353;48.702;8.884;2023-10-09T00:55:02;10.60;99.90
74822;DHT22;63353;48.702;8.884;2023-10-09T00:57:48;10.60;99.90
74822;DHT22;63353;48.702;8.884;2023-10-09T01:00:26;10.70;99.90
74822;DHT22;63353;48.702;8.884;2023-10-09T01:03:19;10.60;99.90
74822;DHT22;63353;48.702;8.884;2023-10-09T01:05:57;10.60;99.90
74822;DHT22;63353;48.702;8.884;2023-10-09T01:08:39;10.60;99.90
74822;DHT22;63353;48.702;8.884;2023-10-09T01:11:06;10.60;99.90
74822;DHT22;63353;48.702;8.884;2023-10-09T01:13:36;10.50;99.90
74822;DHT22;63353;48.702;8.884;2023-10-09T01:16:07;10.50;99.90
74822;DHT22;63353;48.702;8.884;2023-10-09T01:18:42;10.60;99.90
74822;DHT22;63353;48.702;8.884;2023-10-09T01:21:09;10.80;99.90
74822;DHT22;63353;48.702;8.884;2023-10-09T01:23:43;10.90;99.90
74822;DHT22;63353;48.702;8.884;2023-10-09T01:26:48;10.90;99.90
74822;DHT22;63353;48.702;8.884;2023-10-09T01:29:22;11.00;99.90
74822;DHT22;63353;48.702;8.884;2023-10-09T01:31:54;10.90;99.90
74822;DHT22;63353;48.702;8.884;2023-10-09T01:34:33;10.90;99.90
74822;DHT22;63353;48.702;8.884;2023-10-09T01:37:20;11.00;99.90
74822;DHT22;63353;48.702;8.884;2023-10-09T01:39:51;11.10;99.90
74822;DHT22;63353;48.702;8.884;2023-10-09T01:42:18;11.20;99.90
74822;DHT22;63353;48.702;8.884;2023-10-09T01:44:49;11.20;99.90
74822;DHT22;63353;48.702;8.884;2023-10-09T01:47:16;11.20;99.90
74822;DHT22;63353;48.702;8.884;2023-10-09T01:49:44;11.20;99.90
74822;DHT22;63353;48.702;8.884;2023-10-09T01:52:15;11.20;99.90
74822;DHT22;63353;48.702;8.884;2023-10-09T01:54:50;11.20;99.90
74822;DHT22;63353;48.702;8.884;2023-10-09T01:57:17;11.20;99.90
74822;DHT22;63353;48.702;8.884;2023-10-09T01:59:50;11.10;99.90
74822;DHT22;63353;48.702;8.884;2023-10-09T02:02:19;11.10;99.90
74822;DHT22;63353;48.702;8.884;2023-10-09T02:04:52;11.00;99.90
74822;DHT22;63353;48.702;8.884;2023-10-09T02:07:18;11.00;99.90
74822;DHT22;63353;48.702;8.884;2023-10-09T02:09:53;10.90;99.90
74822;DHT22;63353;48.702;8.884;2023-10-09T02:12:19;10.90;99.90
74822;DHT22;63353;48.702;8.884;2023-10-09T02:14:47;10.90;99.90
74822;DHT22;63353;48.702;8.884;2023-10-09T02:17:13;10.80;99.90
74822;DHT22;63353;48.702;8.884;2023-10-09T02:19:54;10.90;99.90
74822;DHT22;63353;48.702;8.884;2023-10-09T02:22:19;10.90;99.90
74822;DHT22;63353;48.702;8.884;2023-10-09T02:24:45;10.90;99.90
74822;DHT22;63353;48.702;8.884;2023-10-09T02:27:14;10.80;99.90
74822;DHT22;63353;48.702;8.884;2023-10-09T02:29:46;10.80;99.90
74822;DHT22;63353;48.702;8.884;2023-10-09T02:32:13;10.80;99.90
74822;DHT22;63353;48.702;8.884;2023-10-09T02:34:41;10.80;99.90
74822;DHT22;63353;48.702;8.884;2023-10-09T02:37:12;10.70;99.90
74822;DHT22;63353;48.702;8.884;2023-10-09T02:39:39;10.70;99.90
74822;DHT22;63353;48.702;8.884;2023-10-09T02:42:13;10.70;99.90
74822;DHT22;63353;48.702;8.884;2023-10-09T02:44:39;10.70;99.90
74822;DHT22;63353;48.702;8.884;2023-10-09T02:47:12;10.70;99.90
74822;DHT22;63353;48.702;8.884;2023-10-09T02:49:43;10.70;99.90
74822;DHT22;63353;48.702;8.884;2023-10-09T02:52:09;10.60;99.90
74822;DHT22;63353;48.702;8.884;2023-10-09T02:54:42;10.60;99.90
74822;DHT22;63353;48.702;8.884;2023-10-09T02:57:12;10.70;99.90
74822;DHT22;63353;48.702;8.884;2023-10-09T02:59:53;10.70;99.90
74822;DHT22;63353;48.702;8.884;2023-10-09T03:02:19;10.60;99.90
74822;DHT22;63353;48.702;8.884;2023-10-09T03:04:45;10.80;99.90
74822;DHT22;63353;48.702;8.884;2023-10-09T03:07:11;10.80;99.90
74822;DHT22;63353;48.702;8.884;2023-10-09T03:09:39;10.80;99.90
74822;DHT22;63353;48.702;8.884;2023-10-09T03:12:07;10.90;99.90
74822;DHT22;63353;48.702;8.884;2023-10-09T03:14:36;11.00;99.90
74822;DHT22;63353;48.702;8.884;2023-10-09T03:17:06;11.10;99.90
74822;DHT22;63353;48.702;8.884;2023-10-09T03:19:37;11.10;99.90
74822;DHT22;63353;48.702;8.884;2023-10-09T03:22:04;11.10;99.90
74822;DHT22;63353;48.702;8.884;2023-10-09T03:24:29;11.00;99.90
74822;DHT22;63353;48.702;8.884;2023-10-09T03:26:58;11.00;99.90
74822;DHT22;63353;48.702;8.884;2023-10-09T03:29:24;10.90;99.90
74822;DHT22;63353;48.702;8.884;2023-10-09T03:31:50;10.90;99.90
74822;DHT22;63353;48.702;8.884;2023-10-09T03:34:17;10.80;99.90
74822;DHT22;63353;48.702;8.884;2023-10-09T03:36:44;10.80;99.90
74822;DHT22;63353;48.702;8.884;2023-10-09T03:39:09;10.70;99.90
74822;DHT22;63353;48.702;8.884;2023-10-09T03:41:56;10.70;99.90
74822;DHT22;63353;48.702;8.884;2023-10-09T03:44:25;10.70;99.90
74822;DHT22;63353;48.702;8.884;2023-10-09T03:46:54;10.60;99.90
74822;DHT22;63353;48.702;8.884;2023-10-09T03:49:20;10.60;99.90
74822;DHT22;63353;48.702;8.884;2023-10-09T03:51:51;10.70;99.90
74822;DHT22;63353;48.702;8.884;2023-10-09T03:54:17;10.60;99.90
74822;DHT22;63353;48.702;8.884;2023-10-09T03:56:46;10.60;99.90
74822;DHT22;63353;48.702;8.884;2023-10-09T03:59:21;10.60;99.90
74822;DHT22;63353;48.702;8.884;2023-10-09T04:01:49;10.60;99.90
74822;DHT22;63353;48.702;8.884;2023-10-09T04:04:18;10.50;99.90
74822;DHT22;63353;48.702;8.884;2023-10-09T04:06:48;10.50;99.90
74822;DHT22;63353;48.702;8.884;2023-10-09T04:09:15;10.40;99.90
74822;DHT22;63353;48.702;8.884;2023-10-09T04:11:44;10.40;99.90
74822;DHT22;63353;48.702;8.884;2023-10-09T04:14:12;10.30;99.90
74822;DHT22;63353;48.702;8.884;2023-10-09T04:16:40;10.30;99.90
74822;DHT22;63353;48.702;8.884;2023-10-09T04:19:16;10.20;99.90
74822;DHT22;63353;48.702;8.884;2023-10-09T04:21:48;10.20;99.90
74822;DHT22;63353;48.702;8.884;2023-10-09T04:24:13;10.10;99.90
74822;DHT22;63353;48.702;8.884;2023-10-09T04:26:44;10.10;99.90
74822;DHT22;63353;48.702;8.884;2023-10-09T04:29:11;10.10;99.90
74822;DHT22;63353;48.702;8.884;2023-10-09T04:31:45;10.10;99.90
74822;DHT22;63353;48.702;8.884;2023-10-09T04:34:18;10.00;99.90
74822;DHT22;63353;48.702;8.884;2023-10-09T04:37:09;10.00;99.90
74822;DHT22;63353;48.702;8.884;2023-10-09T04:39:41;10.00;99.90
74822;DHT22;63353;48.702;8.884;2023-10-09T04:42:36;10.00;99.90
74822;DHT22;63353;48.702;8.884;2023-10-09T04:45:05;10.00;99.90
74822;DHT22;63353;48.702;8.884;2023-10-09T04:47:36;10.00;99.90
74822;DHT22;63353;48.702;8.884;2023-10-09T04:52:37;10.00;99.90
74822;DHT22;63353;48.702;8.884;2023-10-09T04:55:03;10.00;99.90
74822;DHT22;63353;48.702;8.884;2023-10-09T04:57:42;10.00;99.90
74822;DHT22;63353;48.702;8.884;2023-10-09T05:02:59;10.00;99.90
74822;DHT22;63353;48.702;8.884;2023-10-09T05:05:57;10.00;99.90
74822;DHT22;63353;48.702;8.884;2023-10-09T05:08:45;10.00;99.90
74822;DHT22;63353;48.702;8.884;2023-10-09T05:11:12;10.00;99.90
74822;DHT22;63353;48.702;8.884;2023-10-09T05:13:56;10.00;99.90
74822;DHT22;63353;48.702;8.884;2023-10-09T05:16:37;10.00;99.90
74822;DHT22;63353;48.702;8.884;2023-10-09T05:19:09;10.10;99.90
74822;DHT22;63353;48.702;8.884;2023-10-09T05:21:54;10.10;99.90
74822;DHT22;63353;48.702;8.884;2023-10-09T05:24:24;10.10;99.90
74822;DHT22;63353;48.702;8.884;2023-10-09T05:26:52;10.20;99.90
74822;DHT22;63353;48.702;8.884;2023-10-09T05:29:24;10.20;99.90
74822;DHT22;63353;48.702;8.884;2023-10-09T05:32:03;10.30;99.90
74822;DHT22;63353;48.702;8.884;2023-10-09T05:34:39;10.30;99.90
74822;DHT22;63353;48.702;8.884;2023-10-09T05:37:30;10.40;99.90
74822;DHT22;63353;48.702;8.884;2023-10-09T05:40:00;10.50;99.90
74822;DHT22;63353;48.702;8.884;2023-10-09T05:42:33;10.50;99.90
74822;DHT22;63353;48.702;8.884;2023-10-09T05:45:03;10.60;99.90
74822;DHT22;63353;48.702;8.884;2023-10-09T05:47:51;10.70;99.90
74822;DHT22;63353;48.702;8.884;2023-10-09T05:50:32;10.80;99.90
74822;DHT22;63353;48.702;8.884;2023-10-09T05:52:58;10.80;99.90
74822;DHT22;63353;48.702;8.884;2023-10-09T05:55:28;10.80;99.90
74822;DHT22;63353;48.702;8.884;2023-10-09T05:58:02;10.90;99.90
74822;DHT22;63353;48.702;8.884;2023-10-09T06:00:34;11.00;99.90
74822;DHT22;63353;48.702;8.884;2023-10-09T06:03:19;11.00;99.90
74822;DHT22;63353;48.702;8.884;2023-10-09T06:05:49;11.10;99.90
74822;DHT22;63353;48.702;8.884;2023-10-09T06:08:29;11.10;99.90
74822;DHT22;63353;48.702;8.884;2023-10-09T06:11:08;11.20;99.90
74822;DHT22;63353;48.702;8.884;2023-10-09T06:14:01;11.40;99.90
74822;DHT22;63353;48.702;8.884;2023-10-09T06:16:42;11.40;99.90
74822;DHT22;63353;48.702;8.884;2023-10-09T06:19:11;11.50;99.90
74822;DHT22;63353;48.702;8.884;2023-10-09T06:21:39;11.60;99.90
74822;DHT22;63353;48.702;8.884;2023-10-09T06:24:23;11.60;99.90
74822;DHT22;63353;48.702;8.884;2023-10-09T06:26:50;11.80;99.90
74822;DHT22;63353;48.702;8.884;2023-10-09T06:29:28;12.00;99.90
74822;DHT22;63353;48.702;8.884;2023-10-09T06:32:10;12.20;99.90
74822;DHT22;63353;48.702;8.884;2023-10-09T06:34:46;12.20;99.90
74822;DHT22;63353;48.702;8.884;2023-10-09T06:37:17;12.40;99.90
74822;DHT22;63353;48.702;8.884;2023-10-09T06:39:53;12.50;99.90
74822;DHT22;63353;48.702;8.884;2023-10-09T06:42:25;12.60;99.90
74822;DHT22;63353;48.702;8.884;2023-10-09T06:45:01;12.60;99.90
74822;DHT22;63353;48.702;8.884;2023-10-09T06:47:48;12.70;99.90
74822;DHT22;63353;48.702;8.884;2023-10-09T06:50:35;12.80;99.90
74822;DHT22;63353;48.702;8.884;2023-10-09T06:53:19;12.90;99.90
74822;DHT22;63353;48.702;8.884;2023-10-09T06:55:46;13.00;99.90
74822;DHT22;63353;48.702;8.884;2023-10-09T06:58:16;13.00;99.90
74822;DHT22;63353;48.702;8.884;2023-10-09T07:00:51;13.10;99.90
74822;DHT22;63353;48.702;8.884;2023-10-09T07:03:24;13.20;99.90
74822;DHT22;63353;48.702;8.884;2023-10-09T07:06:09;13.20;99.90
74822;DHT22;63353;48.702;8.884;2023-10-09T07:08:55;13.20;99.90
74822;DHT22;63353;48.702;8.884;2023-10-09T07:11:33;13.30;99.90
74822;DHT22;63353;48.702;8.884;2023-10-09T07:14:09;13.30;99.90
74822;DHT22;63353;48.702;8.884;2023-10-09T07:17:07;13.40;99.90
74822;DHT22;63353;48.702;8.884;2023-10-09T07:19:50;13.50;99.90
74822;DHT22;63353;48.702;8.884;2023-10-09T07:22:16;13.80;99.90
74822;DHT22;63353;48.702;8.884;2023-10-09T07:24:46;14.20;99.90
74822;DHT22;63353;48.702;8.884;2023-10-09T07:27:19;14.40;99.90
74822;DHT22;63353;48.702;8.884;2023-10-09T07:30:06;14.50;99.90
74822;DHT22;63353;48.702;8.884;2023-10-09T07:32:52;14.70;99.90
74822;DHT22;63353;48.702;8.884;2023-10-09T07:35:20;14.90;99.90
74822;DHT22;63353;48.702;8.884;2023-10-09T07:38:06;15.00;99.90
74822;DHT22;63353;48.702;8.884;2023-10-09T07:40:35;15.00;99.90
74822;DHT22;63353;48.702;8.884;2023-10-09T07:43:19;15.10;99.90
74822;DHT22;63353;48.702;8.884;2023-10-09T07:45:44;15.10;99.90
74822;DHT22;63353;48.702;8.884;2023-10-09T07:48:16;15.20;99.90
74822;DHT22;63353;48.702;8.884;2023-10-09T07:50:42;15.30;99.90
74822;DHT22;63353;48.702;8.884;2023-10-09T07:53:14;15.40;99.90
74822;DHT22;63353;48.702;8.884;2023-10-09T07:55:46;15.40;99.90
74822;DHT22;63353;48.702;8.884;2023-10-09T07:58:23;15.60;99.90
74822;DHT22;63353;48.702;8.884;2023-10-09T08:00:56;15.70;99.90
74822;DHT22;63353;48.702;8.884;2023-10-09T08:03:46;15.80;99.90
74822;DHT22;63353;48.702;8.884;2023-10-09T08:06:16;15.90;99.90
74822;DHT22;63353;48.702;8.884;2023-10-09T08:09:19;16.10;99.90
74822;DHT22;63353;48.702;8.884;2023-10-09T08:12:04;16.20;99.90
74822;DHT22;63353;48.702;8.884;2023-10-09T08:14:41;16.30;99.90
74822;DHT22;63353;48.702;8.884;2023-10-09T08:17:13;16.50;99.90
74822;DHT22;63353;48.702;8.884;2023-10-09T08:19:50;16.70;99.90
74822;DHT22;63353;48.702;8.884;2023-10-09T08:22:29;16.80;99.90
74822;DHT22;63353;48.702;8.884;2023-10-09T08:24:55;17.00;99.90
74822;DHT22;63353;48.702;8.884;2023-10-09T08:32:54;17.40;99.90
74822;DHT22;63353;48.702;8.884;2023-10-09T08:35:44;17.60;99.90
74822;DHT22;63353;48.702;8.884;2023-10-09T08:38:14;17.70;99.90
74822;DHT22;63353;48.702;8.884;2023-10-09T08:40:43;17.80;99.90
74822;DHT22;63353;48.702;8.884;2023-10-09T08:43:20;17.90;99.90
74822;DHT22;63353;48.702;8.884;2023-10-09T08:48:13;18.20;99.90
74822;DHT22;63353;48.702;8.884;2023-10-09T08:50:46;18.20;99.90
74822;DHT22;63353;48.702;8.884;2023-10-09T08:53:13;18.30;99.90
74822;DHT22;63353;48.702;8.884;2023-10-09T08:55:39;18.40;99.90
74822;DHT22;63353;48.702;8.884;2023-10-09T08:58:06;18.50;99.90
74822;DHT22;63353;48.702;8.884;2023-10-09T09:00:39;18.60;99.90
74822;DHT22;63353;48.702;8.884;2023-10-09T09:03:08;18.70;99.90
74822;DHT22;63353;48.702;8.884;2023-10-09T09:05:34;18.80;99.90
74822;DHT22;63353;48.702;8.884;2023-10-09T09:08:01;18.90;99.90
74822;DHT22;63353;48.702;8.884;2023-10-09T09:10:28;19.00;99.90
74822;DHT22;63353;48.702;8.884;2023-10-09T09:13:14;19.10;99.90
74822;DHT22;63353;48.702;8.884;2023-10-09T09:16:00;19.20;99.90
74822;DHT22;63353;48.702;8.884;2023-10-09T09:18:25;19.30;99.90
74822;DHT22;63353;48.702;8.884;2023-10-09T09:20:58;19.50;99.90
74822;DHT22;63353;48.702;8.884;2023-10-09T09:23:23;19.60;99.90
74822;DHT22;63353;48.702;8.884;2023-10-09T09:25:51;19.60;99.90
74822;DHT22;63353;48.702;8.884;2023-10-09T09:28:25;19.70;99.90
74822;DHT22;63353;48.702;8.884;2023-10-09T09:30:52;19.70;99.90
74822;DHT22;63353;48.702;8.884;2023-10-09T09:33:27;19.90;99.90
74822;DHT22;63353;48.702;8.884;2023-10-09T09:36:03;20.10;99.90
74822;DHT22;63353;48.702;8.884;2023-10-09T09:38:49;20.30;99.90
74822;DHT22;63353;48.702;8.884;2023-10-09T09:41:17;20.50;99.90
74822;DHT22;63353;48.702;8.884;2023-10-09T09:43:58;20.70;99.90
74822;DHT22;63353;48.702;8.884;2023-10-09T09:46:32;20.90;99.90
74822;DHT22;63353;48.702;8.884;2023-10-09T09:49:04;21.10;99.90
74822;DHT22;63353;48.702;8.884;2023-10-09T09:51:34;21.10;99.90
74822;DHT22;63353;48.702;8.884;2023-10-09T09:54:01;21.20;99.90
74822;DHT22;63353;48.702;8.884;2023-10-09T09:56:28;21.30;99.90
74822;DHT22;63353;48.702;8.884;2023-10-09T09:58:57;21.60;99.90
74822;DHT22;63353;48.702;8.884;2023-10-09T10:01:30;21.70;99.90
74822;DHT22;63353;48.702;8.884;2023-10-09T10:04:12;21.90;99.90
74822;DHT22;63353;48.702;8.884;2023-10-09T10:06:46;22.00;99.90
74822;DHT22;63353;48.702;8.884;2023-10-09T10:12:11;22.30;99.90
74822;DHT22;63353;48.702;8.884;2023-10-09T10:14:56;22.30;99.90
74822;DHT22;63353;48.702;8.884;2023-10-09T10:17:27;22.50;99.90
74822;DHT22;63353;48.702;8.884;2023-10-09T10:22:29;22.70;99.90
74822;DHT22;63353;48.702;8.884;2023-10-09T10:24:59;22.80;99.90
74822;DHT22;63353;48.702;8.884;2023-10-09T10:27:35;22.80;99.90
74822;DHT22;63353;48.702;8.884;2023-10-09T10:30:27;22.90;99.90
74822;DHT22;63353;48.702;8.884;2023-10-09T10:33:00;23.10;99.90
74822;DHT22;63353;48.702;8.884;2023-10-09T10:35:46;23.30;99.90
74822;DHT22;63353;48.702;8.884;2023-10-09T10:40:50;23.50;99.90
74822;DHT22;63353;48.702;8.884;2023-10-09T10:43:26;23.30;99.90
74822;DHT22;63353;48.702;8.884;2023-10-09T10:46:06;23.30;99.90
74822;DHT22;63353;48.702;8.884;2023-10-09T10:48:39;23.60;99.90
74822;DHT22;63353;48.702;8.884;2023-10-09T10:51:05;23.80;99.90
74822;DHT22;63353;48.702;8.884;2023-10-09T10:53:31;24.00;99.90
74822;DHT22;63353;48.702;8.884;2023-10-09T10:56:18;23.90;99.90
74822;DHT22;63353;48.702;8.884;2023-10-09T10:58:54;24.00;99.90
74822;DHT22;63353;48.702;8.884;2023-10-09T11:01:40;24.00;99.90
74822;DHT22;63353;48.702;8.884;2023-10-09T11:04:26;24.00;99.90
74822;DHT22;63353;48.702;8.884;2023-10-09T11:07:02;24.00;99.90
74822;DHT22;63353;48.702;8.884;2023-10-09T11:10:03;24.00;99.90
74822;DHT22;63353;48.702;8.884;2023-10-09T11:12:50;23.80;99.90
74822;DHT22;63353;48.702;8.884;2023-10-09T11:15:31;24.10;99.90
74822;DHT22;63353;48.702;8.884;2023-10-09T11:18:10;24.20;99.90
74822;DHT22;63353;48.702;8.884;2023-10-09T11:20:48;24.10;99.60
74822;DHT22;63353;48.702;8.884;2023-10-09T11:23:32;24.30;98.20
74822;DHT22;63353;48.702;8.884;2023-10-09T11:26:05;24.20;96.70
74822;DHT22;63353;48.702;8.884;2023-10-09T11:29:13;24.10;94.00
74822;DHT22;63353;48.702;8.884;2023-10-09T11:32:03;24.00;94.00
74822;DHT22;63353;48.702;8.884;2023-10-09T11:34:28;23.90;95.00
74822;DHT22;63353;48.702;8.884;2023-10-09T11:36:58;23.90;95.80
74822;DHT22;63353;48.702;8.884;2023-10-09T11:39:30;23.80;93.10
74822;DHT22;63353;48.702;8.884;2023-10-09T11:42:07;23.60;93.50
74822;DHT22;63353;48.702;8.884;2023-10-09T11:44:42;23.50;93.70
74822;DHT22;63353;48.702;8.884;2023-10-09T11:47:11;23.60;94.10
74822;DHT22;63353;48.702;8.884;2023-10-09T11:49:55;23.60;94.00
74822;DHT22;63353;48.702;8.884;2023-10-09T11:52:31;23.60;95.60
74822;DHT22;63353;48.702;8.884;2023-10-09T11:54:58;23.40;93.40
74822;DHT22;63353;48.702;8.884;2023-10-09T11:57:27;23.20;93.50
74822;DHT22;63353;48.702;8.884;2023-10-09T12:00:05;23.10;93.90
74822;DHT22;63353;48.702;8.884;2023-10-09T12:02:50;23.10;93.50
74822;DHT22;63353;48.702;8.884;2023-10-09T12:05:18;22.90;94.30
74822;DHT22;63353;48.702;8.884;2023-10-09T12:07:47;22.80;96.10
74822;DHT22;63353;48.702;8.884;2023-10-09T12:10:20;22.80;94.80
74822;DHT22;63353;48.702;8.884;2023-10-09T12:12:52;22.80;93.10
74822;DHT22;63353;48.702;8.884;2023-10-09T12:15:19;22.90;92.30
74822;DHT22;63353;48.702;8.884;2023-10-09T12:17:46;23.10;91.60
74822;DHT22;63353;48.702;8.884;2023-10-09T12:20:16;23.20;90.60
74822;DHT22;63353;48.702;8.884;2023-10-09T12:23:02;23.20;89.30
74822;DHT22;63353;48.702;8.884;2023-10-09T12:25:32;23.30;88.30
74822;DHT22;63353;48.702;8.884;2023-10-09T12:27:59;23.40;89.20
74822;DHT22;63353;48.702;8.884;2023-10-09T12:30:30;23.60;85.30
74822;DHT22;63353;48.702;8.884;2023-10-09T12:32:57;23.60;83.70
74822;DHT22;63353;48.702;8.884;2023-10-09T12:35:26;23.90;84.90
74822;DHT22;63353;48.702;8.884;2023-10-09T12:37:53;24.30;83.40
74822;DHT22;63353;48.702;8.884;2023-10-09T12:40:23;24.60;81.20
74822;DHT22;63353;48.702;8.884;2023-10-09T12:42:52;24.90;82.00
74822;DHT22;63353;48.702;8.884;2023-10-09T12:45:19;25.50;84.50
74822;DHT22;63353;48.702;8.884;2023-10-09T12:47:53;26.30;86.00
74822;DHT22;63353;48.702;8.884;2023-10-09T12:50:19;26.90;85.20
74822;DHT22;63353;48.702;8.884;2023-10-09T12:52:56;27.40;87.20
74822;DHT22;63353;48.702;8.884;2023-10-09T12:55:27;27.80;82.10
74822;DHT22;63353;48.702;8.884;2023-10-09T12:58:01;27.90;81.50
74822;DHT22;63353;48.702;8.884;2023-10-09T13:00:37;28.10;76.30
74822;DHT22;63353;48.702;8.884;2023-10-09T13:03:07;28.10;71.60
74822;DHT22;63353;48.702;8.884;2023-10-09T13:05:52;28.20;78.40
74822;DHT22;63353;48.702;8.884;2023-10-09T13:08:27;28.10;73.30
74822;DHT22;63353;48.702;8.884;2023-10-09T13:11:09;28.30;73.90
74822;DHT22;63353;48.702;8.884;2023-10-09T13:13:58;28.70;69.90
74822;DHT22;63353;48.702;8.884;2023-10-09T13:16:37;29.40;69.20
74822;DHT22;63353;48.702;8.884;2023-10-09T13:19:02;29.60;69.50
74822;DHT22;63353;48.702;8.884;2023-10-09T13:21:35;29.50;63.70
74822;DHT22;63353;48.702;8.884;2023-10-09T13:24:04;29.70;64.00
74822;DHT22;63353;48.702;8.884;2023-10-09T13:26:33;30.30;62.80
74822;DHT22;63353;48.702;8.884;2023-10-09T13:29:02;30.30;64.40
74822;DHT22;63353;48.702;8.884;2023-10-09T13:31:29;30.40;62.00
74822;DHT22;63353;48.702;8.884;2023-10-09T13:33:57;30.70;61.30
74822;DHT22;63353;48.702;8.884;2023-10-09T13:36:25;31.50;60.20
74822;DHT22;63353;48.702;8.884;2023-10-09T13:39:11;30.60;59.50
74822;DHT22;63353;48.702;8.884;2023-10-09T13:44:30;30.60;58.60
74822;DHT22;63353;48.702;8.884;2023-10-09T13:46:59;30.70;60.30
74822;DHT22;63353;48.702;8.884;2023-10-09T13:49:26;31.20;57.50
74822;DHT22;63353;48.702;8.884;2023-10-09T13:51:56;31.40;58.30
74822;DHT22;63353;48.702;8.884;2023-10-09T13:54:22;30.70;56.40
74822;DHT22;63353;48.702;8.884;2023-10-09T13:57:05;29.60;58.80
74822;DHT22;63353;48.702;8.884;2023-10-09T13:59:34;28.80;58.60
74822;DHT22;63353;48.702;8.884;2023-10-09T14:02:01;28.70;60.20
74822;DHT22;63353;48.702;8.884;2023-10-09T14:04:28;28.70;61.50
74822;DHT22;63353;48.702;8.884;2023-10-09T14:06:54;28.40;60.50
74822;DHT22;63353;48.702;8.884;2023-10-09T14:09:24;28.50;60.30
74822;DHT22;63353;48.702;8.884;2023-10-09T14:12:10;28.60;59.70
74822;DHT22;63353;48.702;8.884;2023-10-09T14:14:42;28.70;59.50
74822;DHT22;63353;48.702;8.884;2023-10-09T14:17:21;28.80;59.40
74822;DHT22;63353;48.702;8.884;2023-10-09T14:19:55;28.90;59.80
74822;DHT22;63353;48.702;8.884;2023-10-09T14:22:26;28.50;60.10
74822;DHT22;63353;48.702;8.884;2023-10-09T14:24:53;28.10;60.20
74822;DHT22;63353;48.702;8.884;2023-10-09T14:27:24;28.20;60.10
74822;DHT22;63353;48.702;8.884;2023-10-09T14:29:55;28.20;62.00
74822;DHT22;63353;48.702;8.884;2023-10-09T14:32:23;28.10;62.20
74822;DHT22;63353;48.702;8.884;2023-10-09T14:34:55;27.50;60.10
74822;DHT22;63353;48.702;8.884;2023-10-09T14:37:29;27.50;60.90
74822;DHT22;63353;48.702;8.884;2023-10-09T14:39:57;27.20;61.00
74822;DHT22;63353;48.702;8.884;2023-10-09T14:42:24;27.00;61.00
74822;DHT22;63353;48.702;8.884;2023-10-09T14:44:53;27.00;63.90
74822;DHT22;63353;48.702;8.884;2023-10-09T14:47:20;27.00;61.10
74822;DHT22;63353;48.702;8.884;2023-10-09T14:49:49;27.00;60.50
74822;DHT22;63353;48.702;8.884;2023-10-09T14:52:15;27.00;62.70
74822;DHT22;63353;48.702;8.884;2023-10-09T14:54:46;27.00;63.00
74822;DHT22;63353;48.702;8.884;2023-10-09T14:57:13;27.10;63.10
74822;DHT22;63353;48.702;8.884;2023-10-09T14:59:38;27.20;60.40
74822;DHT22;63353;48.702;8.884;2023-10-09T15:02:05;27.30;62.40
74822;DHT22;63353;48.702;8.884;2023-10-09T15:04:31;27.30;61.20
74822;DHT22;63353;48.702;8.884;2023-10-09T15:07:01;27.20;60.40
74822;DHT22;63353;48.702;8.884;2023-10-09T15:09:27;27.10;60.30
74822;DHT22;63353;48.702;8.884;2023-10-09T15:11:56;26.90;60.20
74822;DHT22;63353;48.702;8.884;2023-10-09T15:14:23;26.70;60.80
74822;DHT22;63353;48.702;8.884;2023-10-09T15:16:49;26.30;62.50
74822;DHT22;63353;48.702;8.884;2023-10-09T15:19:16;26.40;62.90
74822;DHT22;63353;48.702;8.884;2023-10-09T15:21:45;26.50;62.10
74822;DHT22;63353;48.702;8.884;2023-10-09T15:24:15;26.10;63.20
74822;DHT22;63353;48.702;8.884;2023-10-09T15:26:42;25.60;65.60
74822;DHT22;63353;48.702;8.884;2023-10-09T15:29:08;25.60;64.20
74822;DHT22;63353;48.702;8.884;2023-10-09T15:31:35;25.50;65.80
74822;DHT22;63353;48.702;8.884;2023-10-09T15:34:02;25.30;67.30
74822;DHT22;63353;48.702;8.884;2023-10-09T15:36:28;25.20;67.20
74822;DHT22;63353;48.702;8.884;2023-10-09T15:38:57;25.00;67.90
74822;DHT22;63353;48.702;8.884;2023-10-09T15:41:29;24.80;69.60
74822;DHT22;63353;48.702;8.884;2023-10-09T15:44:00;24.70;70.30
74822;DHT22;63353;48.702;8.884;2023-10-09T15:46:27;24.40;71.60
74822;DHT22;63353;48.702;8.884;2023-10-09T15:48:53;24.20;72.50
74822;DHT22;63353;48.702;8.884;2023-10-09T15:51:23;24.00;73.90
74822;DHT22;63353;48.702;8.884;2023-10-09T15:53:48;23.80;73.10
74822;DHT22;63353;48.702;8.884;2023-10-09T15:56:15;23.80;74.50
74822;DHT22;63353;48.702;8.884;2023-10-09T15:58:43;23.60;76.40
74822;DHT22;63353;48.702;8.884;2023-10-09T16:01:10;23.40;75.60
74822;DHT22;63353;48.702;8.884;2023-10-09T16:03:44;23.30;76.50
74822;DHT22;63353;48.702;8.884;2023-10-09T16:06:14;23.20;77.90
74822;DHT22;63353;48.702;8.884;2023-10-09T16:08:46;23.10;78.40
74822;DHT22;63353;48.702;8.884;2023-10-09T16:11:21;22.90;79.30
74822;DHT22;63353;48.702;8.884;2023-10-09T16:13:51;22.60;80.30
74822;DHT22;63353;48.702;8.884;2023-10-09T16:16:27;22.50;81.70
74822;DHT22;63353;48.702;8.884;2023-10-09T16:18:54;22.30;81.80
74822;DHT22;63353;48.702;8.884;2023-10-09T16:21:23;22.10;83.30
74822;DHT22;63353;48.702;8.884;2023-10-09T16:23:50;21.90;83.60
74822;DHT22;63353;48.702;8.884;2023-10-09T16:26:15;21.80;83.90
74822;DHT22;63353;48.702;8.884;2023-10-09T16:28:42;21.70;84.10
74822;DHT22;63353;48.702;8.884;2023-10-09T16:31:09;21.70;85.10